sensor_id;sensor_type;location;lat;lon;timestamp;P1;durP1;ratioP1;P2;durP2;ratioP2
13834;SDS011;6988;52.614;13.500;2023-02-15T00:03:44;39.30;;;25.10;;
13834;SDS011;6988;52.614;13.500;2023-02-15T00:08:35;38.97;;;25.97;;
13834;SDS011;6988;52.614;13.500;2023-02-15T00:13:29;37.37;;;24.40;;
13834;SDS011;6988;52.614;13.500;2023-02-15T00:18:21;40.30;;;26.00;;
13834;SDS011;6988;52.614;13.500;2023-02-15T00:23:13;40.10;;;24.50;;
13834;SDS011;6988;52.614;13.500;2023-02-15T00:28:05;39.50;;;24.43;;
13834;SDS011;6988;52.614;13.500;2023-02-15T00:32:59;39.73;;;24.23;;
13834;SDS011;6988;52.614;13.500;2023-02-15T00:37:51;41.43;;;25.87;;
13834;SDS011;6988;52.614;13.500;2023-02-15T00:42:43;40.23;;;23.67;;
13834;SDS011;6988;52.614;13.500;2023-02-15T00:47:35;42.07;;;24.33;;
13834;SDS011;6988;52.614;13.500;2023-02-15T00:52:28;38.67;;;24.57;;
13834;SDS011;6988;52.614;13.500;2023-02-15T00:57:20;38.13;;;24.20;;
13834;SDS011;6988;52.614;13.500;2023-02-15T01:02:12;35.80;;;23.73;;
13834;SDS011;6988;52.614;13.500;2023-02-15T01:07:04;34.63;;;22.47;;
13834;SDS011;6988;52.614;13.500;2023-02-15T01:11:58;36.20;;;23.37;;
13834;SDS011;6988;52.614;13.500;2023-02-15T01:16:50;41.07;;;25.60;;
13834;SDS011;6988;52.614;13.500;2023-02-15T01:21:42;38.60;;;25.60;;
13834;SDS011;6988;52.614;13.500;2023-02-15T01:26:34;37.80;;;24.90;;
13834;SDS011;6988;52.614;13.500;2023-02-15T01:31:27;35.23;;;23.43;;
13834;SDS011;6988;52.614;13.500;2023-02-15T01:36:19;37.33;;;24.33;;
13834;SDS011;6988;52.614;13.500;2023-02-15T01:41:10;36.93;;;24.97;;
13834;SDS011;6988;52.614;13.500;2023-02-15T01:46:14;38.90;;;24.80;;
13834;SDS011;6988;52.614;13.500;2023-02-15T01:51:11;37.47;;;24.90;;
13834;SDS011;6988;52.614;13.500;2023-02-15T01:56:08;38.67;;;25.17;;
13834;SDS011;6988;52.614;13.500;2023-02-15T02:01:05;38.77;;;23.87;;
13834;SDS011;6988;52.614;13.500;2023-02-15T02:05:59;43.23;;;27.70;;
13834;SDS011;6988;52.614;13.500;2023-02-15T02:10:53;44.20;;;27.20;;
13834;SDS011;6988;52.614;13.500;2023-02-15T02:15:46;42.53;;;26.10;;
13834;SDS011;6988;52.614;13.500;2023-02-15T02:38:00;50.17;;;30.13;;
13834;SDS011;6988;52.614;13.500;2023-02-15T02:43:04;56.60;;;32.27;;
13834;SDS011;6988;52.614;13.500;2023-02-15T02:48:09;51.37;;;30.93;;
13834;SDS011;6988;52.614;13.500;2023-02-15T02:53:06;56.57;;;31.73;;
13834;SDS011;6988;52.614;13.500;2023-02-15T02:58:00;61.97;;;32.90;;
13834;SDS011;6988;52.614;13.500;2023-02-15T03:03:01;59.43;;;35.00;;
13834;SDS011;6988;52.614;13.500;2023-02-15T03:08:02;61.53;;;34.00;;
13834;SDS011;6988;52.614;13.500;2023-02-15T03:13:00;58.67;;;32.50;;
13834;SDS011;6988;52.614;13.500;2023-02-15T03:17:53;61.97;;;33.73;;
13834;SDS011;6988;52.614;13.500;2023-02-15T03:22:53;65.77;;;35.87;;
13834;SDS011;6988;52.614;13.500;2023-02-15T03:27:53;70.90;;;36.90;;
13834;SDS011;6988;52.614;13.500;2023-02-15T03:32:50;68.53;;;36.53;;
13834;SDS011;6988;52.614;13.500;2023-02-15T03:37:46;66.73;;;36.13;;
13834;SDS011;6988;52.614;13.500;2023-02-15T03:42:45;72.23;;;37.90;;
13834;SDS011;6988;52.614;13.500;2023-02-15T03:47:46;71.17;;;37.07;;
13834;SDS011;6988;52.614;13.500;2023-02-15T03:52:41;78.27;;;38.87;;
13834;SDS011;6988;52.614;13.500;2023-02-15T03:57:34;75.57;;;38.63;;
13834;SDS011;6988;52.614;13.500;2023-02-15T04:02:49;74.03;;;38.53;;
13834;SDS011;6988;52.614;13.500;2023-02-15T04:07:58;76.83;;;40.07;;
13834;SDS011;6988;52.614;13.500;2023-02-15T04:12:50;80.07;;;39.90;;
13834;SDS011;6988;52.614;13.500;2023-02-15T04:17:42;70.63;;;38.50;;
13834;SDS011;6988;52.614;13.500;2023-02-15T04:22:35;79.57;;;41.33;;
13834;SDS011;6988;52.614;13.500;2023-02-15T04:27:45;73.03;;;38.57;;
13834;SDS011;6988;52.614;13.500;2023-02-15T04:32:40;70.63;;;38.70;;
13834;SDS011;6988;52.614;13.500;2023-02-15T04:37:32;74.90;;;38.87;;
13834;SDS011;6988;52.614;13.500;2023-02-15T04:42:26;73.40;;;39.03;;
13834;SDS011;6988;52.614;13.500;2023-02-15T04:47:18;75.33;;;39.37;;
13834;SDS011;6988;52.614;13.500;2023-02-15T04:52:11;73.00;;;37.20;;
13834;SDS011;6988;52.614;13.500;2023-02-15T04:57:03;72.00;;;38.60;;
13834;SDS011;6988;52.614;13.500;2023-02-15T05:01:56;75.67;;;38.10;;
13834;SDS011;6988;52.614;13.500;2023-02-15T05:06:48;69.13;;;36.90;;
13834;SDS011;6988;52.614;13.500;2023-02-15T05:11:40;76.83;;;40.87;;
13834;SDS011;6988;52.614;13.500;2023-02-15T05:16:33;70.53;;;37.67;;
13834;SDS011;6988;52.614;13.500;2023-02-15T05:21:26;73.90;;;38.40;;
13834;SDS011;6988;52.614;13.500;2023-02-15T05:26:19;78.20;;;40.50;;
13834;SDS011;6988;52.614;13.500;2023-02-15T05:31:33;73.13;;;39.83;;
13834;SDS011;6988;52.614;13.500;2023-02-15T05:36:27;74.23;;;38.50;;
13834;SDS011;6988;52.614;13.500;2023-02-15T05:41:19;71.13;;;38.13;;
13834;SDS011;6988;52.614;13.500;2023-02-15T05:46:11;74.87;;;39.10;;
13834;SDS011;6988;52.614;13.500;2023-02-15T05:51:05;72.27;;;39.70;;
13834;SDS011;6988;52.614;13.500;2023-02-15T05:56:00;71.67;;;39.20;;
13834;SDS011;6988;52.614;13.500;2023-02-15T06:00:53;78.90;;;40.37;;
13834;SDS011;6988;52.614;13.500;2023-02-15T06:05:46;88.33;;;42.30;;
13834;SDS011;6988;52.614;13.500;2023-02-15T06:10:39;90.93;;;45.23;;
13834;SDS011;6988;52.614;13.500;2023-02-15T06:15:33;92.10;;;45.60;;
13834;SDS011;6988;52.614;13.500;2023-02-15T06:20:25;97.63;;;46.90;;
13834;SDS011;6988;52.614;13.500;2023-02-15T06:25:16;101.73;;;47.77;;
13834;SDS011;6988;52.614;13.500;2023-02-15T06:30:09;100.80;;;47.03;;
13834;SDS011;6988;52.614;13.500;2023-02-15T06:35:04;106.40;;;46.60;;
13834;SDS011;6988;52.614;13.500;2023-02-15T06:39:57;133.93;;;49.63;;
13834;SDS011;6988;52.614;13.500;2023-02-15T06:44:49;184.90;;;51.57;;
13834;SDS011;6988;52.614;13.500;2023-02-15T06:49:40;198.13;;;51.97;;
13834;SDS011;6988;52.614;13.500;2023-02-15T06:54:33;409.03;;;60.40;;
13834;SDS011;6988;52.614;13.500;2023-02-15T06:59:25;139.50;;;52.03;;
13834;SDS011;6988;52.614;13.500;2023-02-15T07:04:17;142.33;;;50.00;;
13834;SDS011;6988;52.614;13.500;2023-02-15T07:09:09;216.57;;;51.83;;
13834;SDS011;6988;52.614;13.500;2023-02-15T07:14:02;255.47;;;52.03;;
13834;SDS011;6988;52.614;13.500;2023-02-15T07:18:54;285.97;;;51.70;;
13834;SDS011;6988;52.614;13.500;2023-02-15T07:23:46;270.87;;;54.17;;
13834;SDS011;6988;52.614;13.500;2023-02-15T07:28:38;322.30;;;52.23;;
13834;SDS011;6988;52.614;13.500;2023-02-15T07:33:31;469.00;;;58.43;;
13834;SDS011;6988;52.614;13.500;2023-02-15T07:38:24;428.67;;;55.23;;
13834;SDS011;6988;52.614;13.500;2023-02-15T07:43:17;130.63;;;45.60;;
13834;SDS011;6988;52.614;13.500;2023-02-15T07:48:09;282.83;;;50.63;;
13834;SDS011;6988;52.614;13.500;2023-02-15T07:53:02;278.37;;;51.07;;
13834;SDS011;6988;52.614;13.500;2023-02-15T07:57:54;256.27;;;49.67;;
13834;SDS011;6988;52.614;13.500;2023-02-15T08:02:47;161.20;;;45.53;;
13834;SDS011;6988;52.614;13.500;2023-02-15T08:07:59;193.30;;;46.53;;
13834;SDS011;6988;52.614;13.500;2023-02-15T08:12:54;443.63;;;49.67;;
13834;SDS011;6988;52.614;13.500;2023-02-15T08:17:46;558.50;;;59.43;;
13834;SDS011;6988;52.614;13.500;2023-02-15T08:22:37;146.80;;;44.30;;
13834;SDS011;6988;52.614;13.500;2023-02-15T08:27:29;221.77;;;44.77;;
13834;SDS011;6988;52.614;13.500;2023-02-15T08:32:22;351.30;;;50.77;;
13834;SDS011;6988;52.614;13.500;2023-02-15T08:37:14;225.93;;;45.23;;
13834;SDS011;6988;52.614;13.500;2023-02-15T08:42:06;218.57;;;44.50;;
13834;SDS011;6988;52.614;13.500;2023-02-15T08:46:58;164.03;;;44.57;;
13834;SDS011;6988;52.614;13.500;2023-02-15T08:51:54;273.13;;;45.67;;
13834;SDS011;6988;52.614;13.500;2023-02-15T08:56:46;172.83;;;41.23;;
13834;SDS011;6988;52.614;13.500;2023-02-15T09:01:39;239.17;;;44.60;;
13834;SDS011;6988;52.614;13.500;2023-02-15T09:06:31;305.87;;;46.13;;
13834;SDS011;6988;52.614;13.500;2023-02-15T09:11:25;290.87;;;45.00;;
13834;SDS011;6988;52.614;13.500;2023-02-15T09:16:19;343.07;;;47.13;;
13834;SDS011;6988;52.614;13.500;2023-02-15T09:21:13;288.77;;;46.97;;
13834;SDS011;6988;52.614;13.500;2023-02-15T09:26:09;383.93;;;47.30;;
13834;SDS011;6988;52.614;13.500;2023-02-15T09:31:08;134.60;;;45.00;;
13834;SDS011;6988;52.614;13.500;2023-02-15T09:36:02;217.23;;;46.80;;
13834;SDS011;6988;52.614;13.500;2023-02-15T09:40:58;194.73;;;44.43;;
13834;SDS011;6988;52.614;13.500;2023-02-15T09:46:22;195.00;;;47.10;;
13834;SDS011;6988;52.614;13.500;2023-02-15T09:51:45;187.33;;;46.10;;
13834;SDS011;6988;52.614;13.500;2023-02-15T09:57:08;189.23;;;45.30;;
13834;SDS011;6988;52.614;13.500;2023-02-15T10:02:19;136.00;;;43.43;;
13834;SDS011;6988;52.614;13.500;2023-02-15T10:07:31;107.80;;;43.30;;
13834;SDS011;6988;52.614;13.500;2023-02-15T10:12:49;112.23;;;43.00;;
13834;SDS011;6988;52.614;13.500;2023-02-15T10:29:21;114.50;;;44.60;;
13834;SDS011;6988;52.614;13.500;2023-02-15T10:34:28;120.20;;;45.97;;
13834;SDS011;6988;52.614;13.500;2023-02-15T10:39:30;115.17;;;45.20;;
13834;SDS011;6988;52.614;13.500;2023-02-15T10:44:39;113.33;;;44.07;;
13834;SDS011;6988;52.614;13.500;2023-02-15T10:49:53;106.40;;;45.30;;
13834;SDS011;6988;52.614;13.500;2023-02-15T10:55:11;104.03;;;43.50;;
13834;SDS011;6988;52.614;13.500;2023-02-15T11:00:12;104.60;;;45.07;;
13834;SDS011;6988;52.614;13.500;2023-02-15T11:10:35;90.87;;;42.67;;
13834;SDS011;6988;52.614;13.500;2023-02-15T11:15:35;89.90;;;42.43;;
13834;SDS011;6988;52.614;13.500;2023-02-15T11:20:33;87.40;;;39.37;;
13834;SDS011;6988;52.614;13.500;2023-02-15T11:25:34;88.30;;;40.10;;
13834;SDS011;6988;52.614;13.500;2023-02-15T11:30:28;77.70;;;39.67;;
13834;SDS011;6988;52.614;13.500;2023-02-15T11:35:36;78.00;;;39.93;;
13834;SDS011;6988;52.614;13.500;2023-02-15T11:40:41;74.07;;;38.30;;
13834;SDS011;6988;52.614;13.500;2023-02-15T11:45:39;70.40;;;36.57;;
13834;SDS011;6988;52.614;13.500;2023-02-15T11:50:35;68.30;;;36.70;;
13834;SDS011;6988;52.614;13.500;2023-02-15T11:55:29;66.20;;;34.23;;
13834;SDS011;6988;52.614;13.500;2023-02-15T12:00:26;59.80;;;32.67;;
13834;SDS011;6988;52.614;13.500;2023-02-15T12:05:26;51.33;;;29.70;;
13834;SDS011;6988;52.614;13.500;2023-02-15T12:10:19;53.83;;;28.03;;
13834;SDS011;6988;52.614;13.500;2023-02-15T12:15:17;48.70;;;28.00;;
13834;SDS011;6988;52.614;13.500;2023-02-15T12:20:24;47.13;;;28.33;;
13834;SDS011;6988;52.614;13.500;2023-02-15T12:25:24;46.17;;;25.43;;
13834;SDS011;6988;52.614;13.500;2023-02-15T12:30:28;38.80;;;22.40;;
13834;SDS011;6988;52.614;13.500;2023-02-15T12:35:26;34.67;;;18.03;;
13834;SDS011;6988;52.614;13.500;2023-02-15T12:40:22;33.27;;;17.97;;
13834;SDS011;6988;52.614;13.500;2023-02-15T12:45:23;36.90;;;18.40;;
13834;SDS011;6988;52.614;13.500;2023-02-15T12:50:21;28.57;;;16.80;;
13834;SDS011;6988;52.614;13.500;2023-02-15T12:55:19;27.00;;;15.80;;
13834;SDS011;6988;52.614;13.500;2023-02-15T13:00:26;27.10;;;16.90;;
13834;SDS011;6988;52.614;13.500;2023-02-15T13:05:22;28.17;;;16.33;;
13834;SDS011;6988;52.614;13.500;2023-02-15T13:10:24;25.00;;;16.00;;
13834;SDS011;6988;52.614;13.500;2023-02-15T13:15:23;23.77;;;15.50;;
13834;SDS011;6988;52.614;13.500;2023-02-15T13:20:26;24.43;;;15.23;;
13834;SDS011;6988;52.614;13.500;2023-02-15T13:25:21;26.83;;;16.33;;
13834;SDS011;6988;52.614;13.500;2023-02-15T13:30:23;27.70;;;15.00;;
13834;SDS011;6988;52.614;13.500;2023-02-15T13:35:20;25.97;;;16.30;;
13834;SDS011;6988;52.614;13.500;2023-02-15T13:40:15;27.53;;;16.07;;
13834;SDS011;6988;52.614;13.500;2023-02-15T13:45:19;24.80;;;15.70;;
13834;SDS011;6988;52.614;13.500;2023-02-15T13:50:47;22.40;;;15.03;;
13834;SDS011;6988;52.614;13.500;2023-02-15T13:55:57;25.80;;;15.90;;
13834;SDS011;6988;52.614;13.500;2023-02-15T14:00:59;23.87;;;15.77;;
13834;SDS011;6988;52.614;13.500;2023-02-15T14:11:30;23.17;;;15.67;;
13834;SDS011;6988;52.614;13.500;2023-02-15T14:16:35;25.90;;;16.60;;
13834;SDS011;6988;52.614;13.500;2023-02-15T14:21:39;27.10;;;16.43;;
13834;SDS011;6988;52.614;13.500;2023-02-15T14:26:43;25.63;;;16.73;;
13834;SDS011;6988;52.614;13.500;2023-02-15T14:31:45;26.93;;;17.23;;
13834;SDS011;6988;52.614;13.500;2023-02-15T14:36:44;26.37;;;17.30;;
13834;SDS011;6988;52.614;13.500;2023-02-15T14:41:37;25.77;;;17.53;;
13834;SDS011;6988;52.614;13.500;2023-02-15T14:46:41;29.80;;;18.00;;
13834;SDS011;6988;52.614;13.500;2023-02-15T14:57:23;25.03;;;16.67;;
13834;SDS011;6988;52.614;13.500;2023-02-15T15:02:21;30.90;;;17.70;;
13834;SDS011;6988;52.614;13.500;2023-02-15T15:07:22;32.47;;;18.47;;
13834;SDS011;6988;52.614;13.500;2023-02-15T15:12:36;27.03;;;17.67;;
13834;SDS011;6988;52.614;13.500;2023-02-15T15:22:52;26.17;;;16.10;;
13834;SDS011;6988;52.614;13.500;2023-02-15T15:28:53;23.70;;;15.83;;
13834;SDS011;6988;52.614;13.500;2023-02-15T15:34:13;26.13;;;14.90;;
13834;SDS011;6988;52.614;13.500;2023-02-15T15:39:51;23.10;;;14.00;;
13834;SDS011;6988;52.614;13.500;2023-02-15T15:45:33;28.77;;;16.37;;
13834;SDS011;6988;52.614;13.500;2023-02-15T15:50:41;23.23;;;14.47;;
13834;SDS011;6988;52.614;13.500;2023-02-15T15:55:34;24.57;;;14.00;;
13834;SDS011;6988;52.614;13.500;2023-02-15T16:00:30;23.37;;;14.50;;
13834;SDS011;6988;52.614;13.500;2023-02-15T16:05:34;24.30;;;15.20;;
13834;SDS011;6988;52.614;13.500;2023-02-15T16:10:28;23.30;;;13.70;;
13834;SDS011;6988;52.614;13.500;2023-02-15T16:15:26;23.03;;;14.20;;
13834;SDS011;6988;52.614;13.500;2023-02-15T16:20:29;25.27;;;15.03;;
13834;SDS011;6988;52.614;13.500;2023-02-15T16:25:31;24.73;;;14.97;;
13834;SDS011;6988;52.614;13.500;2023-02-15T16:30:34;24.87;;;16.53;;
13834;SDS011;6988;52.614;13.500;2023-02-15T16:35:29;24.57;;;13.77;;
13834;SDS011;6988;52.614;13.500;2023-02-15T16:40:29;23.30;;;13.83;;
13834;SDS011;6988;52.614;13.500;2023-02-15T16:45:39;26.43;;;16.33;;
13834;SDS011;6988;52.614;13.500;2023-02-15T16:50:32;27.90;;;16.20;;
13834;SDS011;6988;52.614;13.500;2023-02-15T16:55:27;24.70;;;14.90;;
13834;SDS011;6988;52.614;13.500;2023-02-15T17:00:26;31.27;;;16.87;;
13834;SDS011;6988;52.614;13.500;2023-02-15T17:05:24;24.70;;;15.80;;
13834;SDS011;6988;52.614;13.500;2023-02-15T17:10:25;25.47;;;15.50;;
13834;SDS011;6988;52.614;13.500;2023-02-15T17:15:25;26.73;;;16.37;;
13834;SDS011;6988;52.614;13.500;2023-02-15T17:20:20;32.37;;;18.93;;
13834;SDS011;6988;52.614;13.500;2023-02-15T17:25:18;26.03;;;17.07;;
13834;SDS011;6988;52.614;13.500;2023-02-15T17:30:15;30.43;;;17.83;;
13834;SDS011;6988;52.614;13.500;2023-02-15T17:35:16;28.77;;;17.03;;
13834;SDS011;6988;52.614;13.500;2023-02-15T17:40:18;30.37;;;17.93;;
13834;SDS011;6988;52.614;13.500;2023-02-15T17:45:14;28.73;;;17.27;;
13834;SDS011;6988;52.614;13.500;2023-02-15T17:50:10;30.10;;;18.07;;
13834;SDS011;6988;52.614;13.500;2023-02-15T17:55:12;27.90;;;16.17;;
13834;SDS011;6988;52.614;13.500;2023-02-15T18:00:25;23.47;;;15.40;;
13834;SDS011;6988;52.614;13.500;2023-02-15T18:05:35;32.57;;;19.20;;
13834;SDS011;6988;52.614;13.500;2023-02-15T18:10:45;31.20;;;17.80;;
13834;SDS011;6988;52.614;13.500;2023-02-15T18:15:56;31.73;;;19.00;;
13834;SDS011;6988;52.614;13.500;2023-02-15T18:20:48;33.80;;;21.90;;
13834;SDS011;6988;52.614;13.500;2023-02-15T18:25:40;58.77;;;34.57;;
13834;SDS011;6988;52.614;13.500;2023-02-15T18:30:33;69.47;;;41.73;;
13834;SDS011;6988;52.614;13.500;2023-02-15T18:35:27;90.30;;;48.33;;
13834;SDS011;6988;52.614;13.500;2023-02-15T18:40:24;84.70;;;47.63;;
13834;SDS011;6988;52.614;13.500;2023-02-15T18:45:19;81.40;;;45.73;;
13834;SDS011;6988;52.614;13.500;2023-02-15T18:50:14;75.13;;;45.57;;
13834;SDS011;6988;52.614;13.500;2023-02-15T18:55:17;54.17;;;34.60;;
13834;SDS011;6988;52.614;13.500;2023-02-15T19:00:15;59.33;;;35.00;;
13834;SDS011;6988;52.614;13.500;2023-02-15T19:05:10;53.37;;;32.63;;
13834;SDS011;6988;52.614;13.500;2023-02-15T19:10:03;53.43;;;32.90;;
13834;SDS011;6988;52.614;13.500;2023-02-15T19:15:00;58.10;;;33.73;;
13834;SDS011;6988;52.614;13.500;2023-02-15T19:19:52;55.53;;;36.00;;
13834;SDS011;6988;52.614;13.500;2023-02-15T19:24:44;54.47;;;33.93;;
13834;SDS011;6988;52.614;13.500;2023-02-15T19:29:38;54.07;;;34.00;;
13834;SDS011;6988;52.614;13.500;2023-02-15T19:34:31;53.40;;;33.20;;
13834;SDS011;6988;52.614;13.500;2023-02-15T19:39:24;58.37;;;35.00;;
13834;SDS011;6988;52.614;13.500;2023-02-15T19:44:20;58.60;;;35.77;;
13834;SDS011;6988;52.614;13.500;2023-02-15T19:49:12;56.00;;;35.80;;
13834;SDS011;6988;52.614;13.500;2023-02-15T19:54:07;56.70;;;36.20;;
13834;SDS011;6988;52.614;13.500;2023-02-15T19:59:20;52.13;;;33.57;;
13834;SDS011;6988;52.614;13.500;2023-02-15T20:04:15;47.67;;;30.97;;
13834;SDS011;6988;52.614;13.500;2023-02-15T20:09:10;47.87;;;29.53;;
13834;SDS011;6988;52.614;13.500;2023-02-15T20:14:12;46.77;;;30.53;;
13834;SDS011;6988;52.614;13.500;2023-02-15T20:19:05;45.63;;;29.93;;
13834;SDS011;6988;52.614;13.500;2023-02-15T20:23:58;46.63;;;30.97;;
13834;SDS011;6988;52.614;13.500;2023-02-15T20:28:52;45.50;;;29.80;;
13834;SDS011;6988;52.614;13.500;2023-02-15T20:33:44;55.10;;;35.63;;
13834;SDS011;6988;52.614;13.500;2023-02-15T20:38:36;46.70;;;30.77;;
13834;SDS011;6988;52.614;13.500;2023-02-15T20:43:30;50.23;;;32.37;;
13834;SDS011;6988;52.614;13.500;2023-02-15T20:48:24;45.40;;;30.83;;
13834;SDS011;6988;52.614;13.500;2023-02-15T20:53:16;47.63;;;31.10;;
13834;SDS011;6988;52.614;13.500;2023-02-15T20:58:13;54.27;;;34.20;;
13834;SDS011;6988;52.614;13.500;2023-02-15T21:03:12;52.67;;;33.70;;
13834;SDS011;6988;52.614;13.500;2023-02-15T21:08:08;54.00;;;34.77;;
13834;SDS011;6988;52.614;13.500;2023-02-15T21:13:03;54.53;;;34.97;;
13834;SDS011;6988;52.614;13.500;2023-02-15T21:17:56;55.00;;;36.73;;
13834;SDS011;6988;52.614;13.500;2023-02-15T21:22:50;55.47;;;35.20;;
13834;SDS011;6988;52.614;13.500;2023-02-15T21:27:44;55.97;;;36.27;;
13834;SDS011;6988;52.614;13.500;2023-02-15T21:32:36;52.13;;;34.90;;
13834;SDS011;6988;52.614;13.500;2023-02-15T21:37:29;52.57;;;33.60;;
13834;SDS011;6988;52.614;13.500;2023-02-15T21:42:26;55.60;;;34.83;;
13834;SDS011;6988;52.614;13.500;2023-02-15T21:47:37;48.67;;;32.67;;
13834;SDS011;6988;52.614;13.500;2023-02-15T21:52:41;51.30;;;32.67;;
13834;SDS011;6988;52.614;13.500;2023-02-15T21:57:33;47.27;;;32.13;;
13834;SDS011;6988;52.614;13.500;2023-02-15T22:02:26;51.23;;;33.93;;
13834;SDS011;6988;52.614;13.500;2023-02-15T22:07:22;57.80;;;35.20;;
13834;SDS011;6988;52.614;13.500;2023-02-15T22:12:14;60.53;;;38.93;;
13834;SDS011;6988;52.614;13.500;2023-02-15T22:17:12;59.30;;;37.70;;
13834;SDS011;6988;52.614;13.500;2023-02-15T22:22:06;50.20;;;33.73;;
13834;SDS011;6988;52.614;13.500;2023-02-15T22:26:59;52.00;;;32.70;;
13834;SDS011;6988;52.614;13.500;2023-02-15T22:31:51;52.30;;;34.57;;
13834;SDS011;6988;52.614;13.500;2023-02-15T22:36:43;52.90;;;36.17;;
13834;SDS011;6988;52.614;13.500;2023-02-15T22:41:35;59.67;;;38.67;;
13834;SDS011;6988;52.614;13.500;2023-02-15T23:15:13;41.40;;;27.33;;
13834;SDS011;6988;52.614;13.500;2023-02-15T23:20:05;43.37;;;29.10;;
13834;SDS011;6988;52.614;13.500;2023-02-15T23:25:04;45.07;;;30.93;;
13834;SDS011;6988;52.614;13.500;2023-02-15T23:30:02;43.33;;;30.40;;
13834;SDS011;6988;52.614;13.500;2023-02-15T23:34:58;48.60;;;32.93;;
13834;SDS011;6988;52.614;13.500;2023-02-15T23:39:50;46.87;;;32.20;;
13834;SDS011;6988;52.614;13.500;2023-02-15T23:44:59;50.50;;;33.13;;
13834;SDS011;6988;52.614;13.500;2023-02-15T23:49:52;48.60;;;32.97;;
13834;SDS011;6988;52.614;13.500;2023-02-15T23:54:46;51.73;;;34.80;;
13834;SDS011;6988;52.614;13.500;2023-02-15T23:59:38;53.83;;;35.33;;
